Time;durP1;ratioP1;P1;durP2;ratioP2;P2;SDS_P1;SDS_P2;PMS_P1;PMS_P2;Temp;Humidity;BMP_temperature;BMP_pressure;BME280_temperature;BME280_humidity;BME280_pressure;Samples;Min_cycle;Max_cycle;Signal;HPM_P1;HPM_P2
2023/01/28 00:01:24;;;;;;;8.70;3.07;;;1.90;99.90;;;;;;4980250;29;20428;-57
2023/01/28 00:03:51;;;;;;;6.23;3.37;;;1.90;99.90;;;;;;4979362;29;20510;-59
2023/01/28 00:06:19;;;;;;;5.80;3.40;;;1.90;99.90;;;;;;4980116;29;20508;-58
2023/01/28 00:08:46;;;;;;;10.73;3.30;;;1.80;99.90;;;;;;4980216;29;20483;-58
2023/01/28 00:11:13;;;;;;;4.27;2.73;;;1.80;99.90;;;;;;4980013;29;20494;-57
2023/01/28 00:13:42;;;;;;;6.67;2.40;;;1.80;99.90;;;;;;4979849;29;20447;-57
2023/01/28 00:16:09;;;;;;;5.03;3.50;;;1.80;99.90;;;;;;4979612;29;20617;-58
2023/01/28 00:18:36;;;;;;;6.93;3.13;;;1.70;99.90;;;;;;4979443;29;20460;-58
2023/01/28 00:21:08;;;;;;;7.37;4.03;;;1.70;99.90;;;;;;4980011;29;20447;-60
2023/01/28 00:23:37;;;;;;;4.77;3.00;;;1.70;99.90;;;;;;4979478;29;20474;-57
2023/01/28 00:26:06;;;;;;;6.30;3.73;;;1.70;99.90;;;;;;4979818;29;20486;-55
2023/01/28 00:28:34;;;;;;;5.40;3.03;;;1.60;99.90;;;;;;4979242;29;20574;-59
2023/01/28 00:31:08;;;;;;;3.63;2.80;;;1.60;99.90;;;;;;4979605;29;20452;-58
2023/01/28 00:33:35;;;;;;;7.40;3.60;;;1.60;99.90;;;;;;4979259;29;20428;-54
2023/01/28 00:36:05;;;;;;;7.07;3.33;;;1.60;99.90;;;;;;4979969;29;20439;-56
2023/01/28 00:38:32;;;;;;;10.37;3.30;;;1.50;99.90;;;;;;4979251;29;20471;-56
2023/01/28 00:41:08;;;;;;;5.67;3.23;;;1.50;99.90;;;;;;4979557;29;20475;-54
2023/01/28 00:43:35;;;;;;;4.83;2.80;;;1.40;99.90;;;;;;4979698;29;20512;-56
2023/01/28 00:46:02;;;;;;;5.30;4.63;;;1.40;99.90;;;;;;4978563;29;20444;-56
2023/01/28 00:48:30;;;;;;;10.80;2.97;;;1.40;99.90;;;;;;4978919;29;20462;-55
2023/01/28 00:50:57;;;;;;;9.67;3.93;;;1.40;99.90;;;;;;4979284;29;20512;-54
2023/01/28 00:53:24;;;;;;;3.67;2.20;;;1.40;99.90;;;;;;4979225;29;20948;-56
2023/01/28 00:55:54;;;;;;;7.33;3.23;;;1.30;99.90;;;;;;4978806;28;20474;-56
2023/01/28 00:58:23;;;;;;;6.60;3.97;;;1.30;99.90;;;;;;4978829;29;20499;-53
2023/01/28 01:00:49;;;;;;;4.67;2.97;;;1.30;99.90;;;;;;4978547;29;20491;-55
2023/01/28 01:03:16;;;;;;;5.40;2.73;;;1.30;99.90;;;;;;4978506;29;20483;-55
2023/01/28 01:05:45;;;;;;;6.33;2.50;;;1.20;99.90;;;;;;4978809;29;20479;-54
2023/01/28 01:08:12;;;;;;;4.53;2.73;;;1.20;99.90;;;;;;4978546;29;20510;-56
2023/01/28 01:10:40;;;;;;;5.17;2.50;;;1.20;99.90;;;;;;4978372;29;20472;-54
2023/01/28 01:13:07;;;;;;;3.83;2.77;;;1.20;99.90;;;;;;4978418;29;20435;-54
2023/01/28 01:15:34;;;;;;;6.07;2.50;;;1.20;99.90;;;;;;4978441;29;20424;-53
2023/01/28 01:18:01;;;;;;;6.97;2.90;;;1.20;99.90;;;;;;4978645;29;20479;-56
2023/01/28 01:20:32;;;;;;;6.70;2.90;;;1.20;99.90;;;;;;4978596;29;20459;-53
2023/01/28 01:23:00;;;;;;;3.77;2.30;;;1.20;99.90;;;;;;4978704;29;20547;-56
2023/01/28 01:25:27;;;;;;;4.33;2.37;;;1.20;99.90;;;;;;4978698;29;20448;-58
2023/01/28 01:27:54;;;;;;;6.37;2.83;;;1.20;99.90;;;;;;4978549;29;20483;-58
2023/01/28 01:30:21;;;;;;;5.83;2.70;;;1.20;99.90;;;;;;4977784;29;20440;-54
2023/01/28 01:32:48;;;;;;;3.03;2.27;;;1.20;99.90;;;;;;4978520;29;20447;-57
2023/01/28 01:35:17;;;;;;;2.30;2.10;;;1.20;99.90;;;;;;4978389;29;20478;-56
2023/01/28 01:37:44;;;;;;;5.73;3.47;;;1.20;99.90;;;;;;4978525;29;20479;-54
2023/01/28 01:40:13;;;;;;;6.17;3.60;;;1.20;99.90;;;;;;4978452;29;20460;-56
2023/01/28 01:42:40;;;;;;;6.47;2.87;;;1.20;99.90;;;;;;4977717;29;20543;-54
2023/01/28 01:45:12;;;;;;;3.50;2.60;;;1.20;99.90;;;;;;4978557;29;20451;-59
2023/01/28 01:47:47;;;;;;;6.47;2.83;;;1.30;99.90;;;;;;4977861;29;20489;-54
2023/01/28 01:50:22;;;;;;;5.13;2.67;;;1.30;99.90;;;;;;4977979;29;20443;-54
2023/01/28 01:52:54;;;;;;;8.03;3.70;;;1.40;99.90;;;;;;4978133;29;20503;-59
2023/01/28 01:55:25;;;;;;;3.37;2.10;;;1.40;99.90;;;;;;4977945;29;20428;-54
2023/01/28 01:57:56;;;;;;;4.10;2.80;;;1.50;99.90;;;;;;4978353;29;20463;-58
2023/01/28 02:00:23;;;;;;;7.00;3.20;;;1.60;99.90;;;;;;4977557;29;20471;-57
2023/01/28 02:02:53;;;;;;;2.97;2.23;;;1.60;99.90;;;;;;4977797;29;20534;-60
2023/01/28 02:05:22;;;;;;;3.40;2.93;;;1.60;99.90;;;;;;4977893;29;20532;-60
2023/01/28 02:07:54;;;;;;;5.00;1.70;;;1.60;99.90;;;;;;4977810;28;20459;-58
2023/01/28 02:10:25;;;;;;;6.17;2.50;;;1.70;99.90;;;;;;4978430;29;20910;-57
2023/01/28 02:12:58;;;;;;;4.03;2.27;;;1.70;99.90;;;;;;4978072;29;20487;-57
2023/01/28 02:15:28;;;;;;;6.77;2.07;;;1.70;99.90;;;;;;4978201;29;20432;-57
2023/01/28 02:17:56;;;;;;;8.50;2.27;;;1.70;99.90;;;;;;4978496;29;20475;-56
2023/01/28 02:20:32;;;;;;;5.00;2.40;;;1.80;99.90;;;;;;4978019;29;20531;-60
2023/01/28 02:23:30;;;;;;;5.07;2.40;;;1.80;99.90;;;;;;4978433;29;20503;-56
2023/01/28 02:26:46;;;;;;;2.20;2.00;;;1.90;99.90;;;;;;4978243;29;20428;-58
2023/01/28 02:29:21;;;;;;;5.33;2.30;;;1.90;99.90;;;;;;4919331;29;20454;-56
2023/01/28 02:31:53;;;;;;;2.67;1.93;;;1.90;99.90;;;;;;4967076;29;20459;-59
2023/01/28 02:34:29;;;;;;;2.97;2.00;;;2.00;99.90;;;;;;4978216;29;20460;-60
2023/01/28 02:37:02;;;;;;;2.30;1.83;;;2.00;99.90;;;;;;4977708;29;20503;-59
2023/01/28 02:39:43;;;;;;;7.17;3.10;;;2.00;99.90;;;;;;4978191;29;20439;-57
2023/01/28 02:42:16;;;;;;;3.20;2.20;;;2.00;99.90;;;;;;4978090;29;20479;-57
2023/01/28 02:44:44;;;;;;;4.03;2.17;;;2.10;99.90;;;;;;4978253;29;20456;-53
2023/01/28 02:50:01;;;;;;;3.50;2.07;;;2.00;99.90;;;;;;4967160;29;20432;-56
2023/01/28 02:55:55;;;;;;;12.10;2.57;;;2.00;99.90;;;;;;4957309;29;20453;-56
2023/01/28 02:58:35;;;;;;;2.27;1.80;;;2.00;99.90;;;;;;4956999;29;20465;-58
2023/01/28 03:01:13;;;;;;;5.77;2.00;;;2.10;99.90;;;;;;4950931;29;20527;-58
2023/01/28 03:03:51;;;;;;;4.20;2.10;;;2.10;99.90;;;;;;4959459;29;20527;-57
2023/01/28 03:06:26;;;;;;;4.57;2.47;;;2.10;99.90;;;;;;4958954;29;20468;-60
2023/01/28 03:36:50;;;;;;;2.37;1.70;;;2.20;99.90;;;;;;4958318;29;20499;-57
2023/01/28 03:39:21;;;;;;;2.77;2.00;;;2.20;99.90;;;;;;4958016;28;20475;-57
2023/01/28 03:42:00;;;;;;;2.20;1.83;;;2.30;99.90;;;;;;4958379;29;20518;-57
2023/01/28 03:47:12;;;;;;;2.67;1.37;;;2.20;99.90;;;;;;4958299;29;20409;-57
2023/01/28 03:49:41;;;;;;;6.70;2.30;;;2.20;99.90;;;;;;4957763;29;20484;-57
2023/01/28 03:52:08;;;;;;;3.30;2.00;;;2.20;99.90;;;;;;4957946;29;20468;-57
2023/01/28 03:54:38;;;;;;;3.10;1.93;;;2.30;99.90;;;;;;4958296;29;20465;-57
2023/01/28 03:57:06;;;;;;;2.43;1.83;;;2.30;99.90;;;;;;4957848;29;20452;-58
2023/01/28 03:59:34;;;;;;;2.60;1.50;;;2.30;99.90;;;;;;4966288;29;20491;-58
2023/01/28 04:02:02;;;;;;;4.33;1.70;;;2.30;99.90;;;;;;4976844;29;20462;-58
2023/01/28 04:04:31;;;;;;;3.20;1.70;;;2.30;99.90;;;;;;4977108;29;20480;-59
2023/01/28 04:06:59;;;;;;;2.00;1.50;;;2.30;99.90;;;;;;4976548;29;20463;-60
2023/01/28 04:09:26;;;;;;;6.73;4.20;;;2.30;99.90;;;;;;4977425;29;20516;-60
2023/01/28 04:11:53;;;;;;;3.07;2.00;;;2.30;99.90;;;;;;4977648;29;20479;-57
2023/01/28 04:14:20;;;;;;;2.27;1.30;;;2.30;99.90;;;;;;4977675;29;20467;-59
2023/01/28 04:16:46;;;;;;;11.10;1.80;;;2.30;99.90;;;;;;4977277;29;20475;-60
2023/01/28 04:19:14;;;;;;;1.63;1.40;;;2.30;99.90;;;;;;4977657;29;20467;-60
2023/01/28 04:21:41;;;;;;;4.50;1.90;;;2.30;99.90;;;;;;4976771;29;20420;-57
2023/01/28 04:24:13;;;;;;;2.77;2.10;;;2.30;99.90;;;;;;4976902;29;20495;-59
2023/01/28 04:26:40;;;;;;;3.63;1.97;;;2.40;99.90;;;;;;4976901;29;20416;-57
2023/01/28 04:29:07;;;;;;;1.50;1.20;;;2.40;99.90;;;;;;4976593;28;20511;-60
2023/01/28 04:31:34;;;;;;;4.50;2.07;;;2.40;99.90;;;;;;4979772;29;20471;-55
2023/01/28 04:34:01;;;;;;;3.33;1.50;;;2.40;99.90;;;;;;4979992;29;20476;-55
2023/01/28 04:36:27;;;;;;;2.00;1.60;;;2.40;99.90;;;;;;4980379;29;20450;-56
2023/01/28 04:38:54;;;;;;;3.20;2.30;;;2.50;99.90;;;;;;4980304;29;20448;-59
2023/01/28 04:41:23;;;;;;;7.33;1.83;;;2.50;99.90;;;;;;4979974;29;20435;-59
2023/01/28 04:43:50;;;;;;;4.80;2.10;;;2.50;99.90;;;;;;4979878;29;20502;-55
2023/01/28 04:46:16;;;;;;;1.80;1.37;;;2.50;99.90;;;;;;4980129;29;20437;-57
2023/01/28 04:48:43;;;;;;;3.90;1.77;;;2.50;99.90;;;;;;4979986;29;20471;-58
2023/01/28 04:51:10;;;;;;;1.80;1.60;;;2.50;99.90;;;;;;4979628;29;20432;-58
2023/01/28 04:53:37;;;;;;;4.07;1.70;;;2.50;99.90;;;;;;4979990;29;20455;-58
2023/01/28 04:56:11;;;;;;;2.87;2.23;;;2.50;99.90;;;;;;4979728;29;20471;-58
2023/01/28 04:58:39;;;;;;;2.13;1.80;;;2.50;99.90;;;;;;4979466;29;20455;-58
2023/01/28 05:01:06;;;;;;;3.13;1.43;;;2.50;99.90;;;;;;4978376;29;20440;-57
2023/01/28 05:03:34;;;;;;;1.90;1.53;;;2.50;99.90;;;;;;4978563;29;20479;-54
2023/01/28 05:06:01;;;;;;;1.57;1.10;;;2.50;99.90;;;;;;4978177;29;20495;-56
2023/01/28 05:08:28;;;;;;;3.60;1.77;;;2.50;99.90;;;;;;4978512;29;20448;-55
2023/01/28 05:11:05;;;;;;;2.13;1.50;;;2.60;99.90;;;;;;4978085;29;20471;-51
2023/01/28 05:13:32;;;;;;;2.03;1.70;;;2.60;99.90;;;;;;4978522;29;20432;-55
2023/01/28 05:16:00;;;;;;;4.00;2.17;;;2.60;99.90;;;;;;4978128;29;20502;-56
2023/01/28 05:18:27;;;;;;;1.87;1.70;;;2.60;99.90;;;;;;4978607;29;20432;-53
2023/01/28 05:20:54;;;;;;;3.43;1.50;;;2.60;99.90;;;;;;4978311;29;20443;-58
2023/01/28 05:23:20;;;;;;;3.70;2.13;;;2.70;99.90;;;;;;4978736;29;20420;-59
2023/01/28 05:25:47;;;;;;;3.03;2.00;;;2.70;99.90;;;;;;4978870;29;20475;-59
2023/01/28 05:28:18;;;;;;;1.33;1.23;;;2.70;99.90;;;;;;4978589;29;20484;-57
2023/01/28 05:30:45;;;;;;;3.00;1.53;;;2.70;99.90;;;;;;4978639;29;20459;-55
2023/01/28 05:33:16;;;;;;;2.33;1.53;;;2.70;99.90;;;;;;4978540;29;20475;-56
2023/01/28 05:35:43;;;;;;;2.50;1.97;;;2.70;99.90;;;;;;4978208;29;20436;-57
2023/01/28 05:38:10;;;;;;;4.43;2.57;;;2.70;99.90;;;;;;4978375;29;20464;-58
2023/01/28 05:40:37;;;;;;;4.13;2.57;;;2.70;99.90;;;;;;4978593;29;20482;-58
2023/01/28 05:43:04;;;;;;;4.70;2.27;;;2.70;99.90;;;;;;4977575;28;20432;-54
2023/01/28 05:45:30;;;;;;;6.27;3.00;;;2.80;99.90;;;;;;4978427;29;20468;-58
2023/01/28 05:48:00;;;;;;;6.23;3.63;;;2.80;99.90;;;;;;4977911;29;20443;-58
2023/01/28 05:50:29;;;;;;;5.70;2.63;;;2.80;99.90;;;;;;4978444;29;20452;-57
2023/01/28 05:52:55;;;;;;;24.07;5.77;;;2.80;99.90;;;;;;4977745;29;20483;-56
2023/01/28 05:55:23;;;;;;;10.97;4.93;;;2.80;99.90;;;;;;4978399;29;20468;-51
2023/01/28 05:57:50;;;;;;;5.40;3.57;;;2.80;99.90;;;;;;4978404;29;20444;-59
2023/01/28 06:00:18;;;;;;;4.80;3.17;;;2.80;99.90;;;;;;4941082;29;1100925;-56
2023/01/28 06:02:45;;;;;;;8.23;4.33;;;2.80;99.90;;;;;;4979213;29;20199;-59
2023/01/28 06:05:12;;;;;;;11.13;4.30;;;2.80;99.90;;;;;;4979115;29;20511;-59
2023/01/28 06:07:40;;;;;;;8.20;5.23;;;2.80;99.90;;;;;;4978937;29;20424;-59
2023/01/28 06:10:08;;;;;;;10.47;5.90;;;2.80;99.90;;;;;;4979372;29;20428;-55
2023/01/28 06:12:35;;;;;;;8.67;4.60;;;2.90;99.90;;;;;;4978848;29;20424;-58
2023/01/28 06:15:02;;;;;;;7.87;4.10;;;2.90;99.90;;;;;;4978953;29;20440;-59
2023/01/28 06:17:29;;;;;;;10.47;4.90;;;2.90;99.90;;;;;;4978816;29;20439;-57
2023/01/28 06:19:56;;;;;;;9.57;5.60;;;2.90;99.90;;;;;;4978796;29;20459;-55
2023/01/28 06:22:22;;;;;;;13.60;5.73;;;2.90;99.90;;;;;;4979006;29;20456;-57
2023/01/28 06:24:51;;;;;;;10.73;5.53;;;2.90;99.90;;;;;;4978654;29;20478;-58
2023/01/28 06:27:18;;;;;;;29.87;7.27;;;3.00;99.90;;;;;;4978770;29;20448;-58
2023/01/28 06:29:44;;;;;;;7.33;3.87;;;3.00;99.90;;;;;;4978800;29;20495;-58
2023/01/28 06:32:14;;;;;;;7.70;6.57;;;3.00;99.90;;;;;;4978378;29;20447;-58
2023/01/28 06:34:41;;;;;;;7.43;4.67;;;3.00;99.90;;;;;;4978648;29;20432;-59
2023/01/28 06:37:08;;;;;;;9.40;4.23;;;3.00;99.90;;;;;;4978029;29;20503;-59
2023/01/28 06:39:35;;;;;;;9.37;4.80;;;3.00;99.90;;;;;;4978912;29;20448;-59
2023/01/28 06:42:03;;;;;;;7.00;3.80;;;3.00;99.90;;;;;;4979245;29;20496;-56
2023/01/28 06:44:34;;;;;;;8.60;4.10;;;3.00;99.90;;;;;;4978578;29;20499;-55
2023/01/28 06:47:01;;;;;;;10.10;3.50;;;3.00;99.90;;;;;;4978357;28;20536;-58
2023/01/28 06:49:29;;;;;;;6.00;3.60;;;3.00;99.90;;;;;;4978568;29;20460;-60
2023/01/28 06:51:56;;;;;;;8.00;5.00;;;3.00;99.90;;;;;;4978153;29;20500;-58
2023/01/28 06:54:23;;;;;;;8.37;4.43;;;3.00;99.90;;;;;;4978299;28;20460;-58
2023/01/28 06:56:50;;;;;;;6.53;3.87;;;3.00;99.90;;;;;;4978116;29;20550;-57
2023/01/28 06:59:18;;;;;;;8.23;4.27;;;3.00;99.90;;;;;;4978079;29;20486;-56
2023/01/28 07:01:45;;;;;;;8.47;4.37;;;3.00;99.90;;;;;;4977599;29;20471;-58
2023/01/28 07:04:14;;;;;;;7.10;4.17;;;3.00;99.90;;;;;;4978336;29;20591;-58
2023/01/28 07:06:41;;;;;;;6.20;3.97;;;3.00;99.90;;;;;;4977944;29;20470;-60
2023/01/28 07:09:08;;;;;;;8.40;5.00;;;3.00;99.90;;;;;;4977448;29;20463;-55
2023/01/28 07:11:35;;;;;;;11.10;6.83;;;2.90;99.90;;;;;;4977595;29;20472;-58
2023/01/28 07:14:02;;;;;;;7.30;3.37;;;3.00;99.90;;;;;;4978120;29;20448;-58
2023/01/28 07:16:30;;;;;;;10.70;6.03;;;3.00;99.90;;;;;;4977697;29;20464;-58
2023/01/28 07:19:00;;;;;;;11.23;4.93;;;3.00;99.90;;;;;;4977713;29;20451;-56
2023/01/28 07:21:26;;;;;;;9.20;5.20;;;3.00;99.90;;;;;;4977430;29;20468;-59
2023/01/28 07:23:54;;;;;;;9.77;5.33;;;3.00;99.90;;;;;;4977489;29;20432;-56
2023/01/28 07:26:22;;;;;;;12.33;5.37;;;3.00;99.90;;;;;;4977319;29;20472;-56
2023/01/28 07:28:49;;;;;;;10.30;5.17;;;3.00;99.90;;;;;;4977974;29;20436;-57
2023/01/28 07:31:16;;;;;;;7.83;4.20;;;3.00;99.90;;;;;;4977926;29;20472;-53
2023/01/28 07:33:44;;;;;;;11.90;4.93;;;3.00;99.90;;;;;;4977860;29;20429;-54
2023/01/28 07:36:11;;;;;;;10.60;5.30;;;3.00;99.90;;;;;;4977910;29;20450;-60
2023/01/28 07:38:37;;;;;;;8.53;5.10;;;3.00;99.90;;;;;;4977710;29;20461;-55
2023/01/28 07:41:05;;;;;;;7.70;3.83;;;3.00;99.90;;;;;;4977623;29;20432;-58
2023/01/28 07:43:33;;;;;;;9.60;4.30;;;3.00;99.90;;;;;;4977574;29;21027;-58
2023/01/28 07:46:01;;;;;;;11.70;5.50;;;3.10;99.90;;;;;;4977843;29;20484;-55
2023/01/28 07:48:28;;;;;;;5.17;4.20;;;3.10;99.90;;;;;;4977855;29;20443;-59
2023/01/28 07:50:58;;;;;;;7.00;4.40;;;3.10;99.90;;;;;;4977829;29;20499;-56
2023/01/28 07:53:25;;;;;;;5.73;3.43;;;3.10;99.90;;;;;;4977653;29;20432;-55
2023/01/28 07:55:52;;;;;;;6.37;3.80;;;3.10;99.90;;;;;;4977691;29;20423;-55
2023/01/28 07:58:19;;;;;;;3.90;2.40;;;3.10;99.90;;;;;;4977328;29;20451;-53
2023/01/28 08:00:46;;;;;;;4.33;2.97;;;3.10;99.90;;;;;;4977646;29;20452;-54
2023/01/28 08:03:14;;;;;;;3.77;2.50;;;3.10;99.90;;;;;;4977409;29;20467;-53
2023/01/28 08:05:44;;;;;;;3.33;2.83;;;3.10;99.90;;;;;;4979173;28;20474;-54
2023/01/28 08:08:12;;;;;;;4.80;2.60;;;3.10;99.90;;;;;;4981263;29;20592;-59
2023/01/28 08:10:40;;;;;;;11.77;2.30;;;3.10;99.90;;;;;;4981628;29;20433;-58
2023/01/28 08:13:09;;;;;;;5.57;2.60;;;3.10;99.90;;;;;;4981076;29;20507;-60
2023/01/28 08:15:37;;;;;;;5.67;3.57;;;3.10;99.90;;;;;;4980936;29;20478;-56
2023/01/28 08:18:08;;;;;;;4.73;2.90;;;3.10;99.90;;;;;;4980701;29;20511;-59
2023/01/28 08:20:35;;;;;;;5.43;3.43;;;3.10;99.90;;;;;;4981253;29;20545;-60
2023/01/28 08:23:06;;;;;;;7.57;3.23;;;3.10;99.90;;;;;;4980694;29;20471;-59
2023/01/28 08:25:35;;;;;;;4.30;3.40;;;3.10;99.90;;;;;;4981373;29;20491;-59
2023/01/28 08:28:03;;;;;;;4.43;3.03;;;3.20;99.90;;;;;;4981107;29;20501;-59
2023/01/28 08:30:30;;;;;;;4.40;2.80;;;3.20;99.90;;;;;;4980808;29;20447;-58
2023/01/28 08:32:57;;;;;;;6.83;3.77;;;3.20;99.90;;;;;;4980483;29;20467;-59
2023/01/28 08:35:24;;;;;;;5.63;3.20;;;3.30;99.90;;;;;;4980795;29;20443;-56
2023/01/28 08:37:51;;;;;;;5.73;3.47;;;3.30;99.90;;;;;;4979992;29;20499;-58
2023/01/28 08:40:18;;;;;;;6.30;3.50;;;3.30;99.90;;;;;;4980314;29;20455;-59
2023/01/28 08:42:48;;;;;;;5.63;3.67;;;3.30;99.90;;;;;;4980398;29;20468;-59
2023/01/28 08:45:15;;;;;;;8.57;4.10;;;3.30;99.90;;;;;;4980995;29;20464;-59
2023/01/28 08:47:48;;;;;;;6.57;3.37;;;3.30;99.90;;;;;;4980297;29;20491;-57
2023/01/28 08:50:16;;;;;;;7.03;4.33;;;3.30;99.90;;;;;;4980293;29;20499;-56
2023/01/28 08:52:43;;;;;;;11.70;4.53;;;3.30;99.90;;;;;;4980410;29;20474;-58
2023/01/28 08:55:10;;;;;;;6.30;4.17;;;3.40;99.90;;;;;;4980454;29;20447;-59
2023/01/28 08:57:37;;;;;;;7.20;3.40;;;3.40;99.90;;;;;;4980169;29;20467;-58
2023/01/28 09:00:10;;;;;;;4.90;3.60;;;3.40;99.90;;;;;;4980041;29;20487;-60
2023/01/28 09:02:37;;;;;;;4.87;3.37;;;3.40;99.90;;;;;;4980064;29;20492;-58
2023/01/28 09:05:05;;;;;;;11.10;4.40;;;3.40;99.90;;;;;;4980150;29;20503;-60
2023/01/28 09:07:34;;;;;;;5.63;5.13;;;3.40;99.90;;;;;;4979625;29;20491;-57
2023/01/28 09:10:01;;;;;;;7.20;2.77;;;3.50;99.90;;;;;;4979866;29;20439;-58
2023/01/28 09:12:28;;;;;;;4.10;2.87;;;3.50;99.90;;;;;;4980081;29;20530;-57
2023/01/28 09:14:55;;;;;;;3.20;2.07;;;3.50;99.90;;;;;;4979907;29;20487;-59
2023/01/28 09:17:23;;;;;;;3.90;2.10;;;3.50;99.90;;;;;;4979809;28;20448;-58
2023/01/28 09:19:50;;;;;;;4.10;1.90;;;3.50;99.90;;;;;;4980231;29;20420;-56
2023/01/28 09:22:18;;;;;;;2.97;1.80;;;3.60;99.90;;;;;;4979617;29;20450;-57
2023/01/28 09:24:45;;;;;;;3.93;2.30;;;3.60;99.90;;;;;;4979896;29;20590;-58
2023/01/28 09:27:11;;;;;;;2.07;1.27;;;3.50;99.90;;;;;;4979407;29;20428;-59
2023/01/28 09:29:38;;;;;;;3.00;1.57;;;3.50;99.90;;;;;;4980281;29;20440;-59
2023/01/28 09:32:06;;;;;;;2.30;1.67;;;3.60;99.90;;;;;;4979740;29;20432;-59
2023/01/28 09:34:34;;;;;;;3.57;1.90;;;3.60;99.90;;;;;;4979508;29;20458;-56
2023/01/28 09:37:04;;;;;;;4.10;2.40;;;3.60;99.90;;;;;;4979801;29;20443;-56
2023/01/28 09:39:31;;;;;;;2.93;1.80;;;3.70;99.90;;;;;;4980000;29;20458;-57
2023/01/28 09:42:16;;;;;;;3.30;2.60;;;3.70;99.90;;;;;;4979723;29;20448;-55
2023/01/28 09:44:56;;;;;;;2.90;1.97;;;3.80;99.90;;;;;;4979752;29;20495;-58
2023/01/28 09:47:27;;;;;;;1.93;1.23;;;3.80;99.90;;;;;;4979763;29;20439;-58
2023/01/28 09:49:59;;;;;;;2.23;1.30;;;3.80;99.90;;;;;;4979479;29;20435;-59
2023/01/28 09:52:34;;;;;;;11.70;4.93;;;3.80;99.90;;;;;;4979194;29;20424;-59
2023/01/28 09:55:03;;;;;;;3.50;1.90;;;3.70;99.90;;;;;;4979479;29;20432;-59
2023/01/28 09:57:37;;;;;;;2.00;1.80;;;3.70;99.90;;;;;;4979333;29;20451;-59
2023/01/28 10:00:13;;;;;;;1.83;1.30;;;3.70;99.90;;;;;;4978854;29;20435;-59
2023/01/28 10:03:18;;;;;;;0.97;0.87;;;3.70;99.90;;;;;;4979213;29;20446;-58
2023/01/28 10:05:57;;;;;;;9.33;2.30;;;3.70;99.90;;;;;;4978803;29;20475;-57
2023/01/28 10:08:42;;;;;;;6.00;1.90;;;3.70;99.90;;;;;;4978970;29;20498;-60
2023/01/28 10:11:35;;;;;;;1.50;1.10;;;3.70;99.90;;;;;;4979083;29;20439;-56
2023/01/28 10:14:09;;;;;;;2.20;1.23;;;3.70;99.90;;;;;;4978955;29;20475;-57
2023/01/28 10:16:40;;;;;;;1.50;1.27;;;3.80;99.90;;;;;;4979119;29;20431;-58
2023/01/28 10:19:12;;;;;;;3.23;1.20;;;3.80;99.90;;;;;;4979209;29;20502;-59
2023/01/28 10:21:48;;;;;;;2.60;1.07;;;3.80;99.90;;;;;;4979326;29;20441;-59
2023/01/28 10:24:18;;;;;;;2.13;1.40;;;3.80;99.90;;;;;;4979485;29;20551;-58
2023/01/28 10:26:46;;;;;;;9.40;1.57;;;3.80;99.90;;;;;;4979500;28;20468;-59
2023/01/28 10:29:17;;;;;;;1.90;1.20;;;3.90;99.90;;;;;;4978852;28;20523;-52
2023/01/28 10:31:51;;;;;;;5.27;1.80;;;3.90;99.90;;;;;;4979220;29;20477;-58
2023/01/28 10:34:18;;;;;;;1.70;1.10;;;3.80;99.90;;;;;;4979060;29;20455;-56
2023/01/28 10:36:47;;;;;;;1.60;1.00;;;3.80;99.90;;;;;;4979152;29;20443;-56
2023/01/28 10:39:15;;;;;;;4.13;1.10;;;3.80;99.90;;;;;;4978461;29;20467;-56
2023/01/28 10:41:45;;;;;;;1.63;1.10;;;3.80;99.90;;;;;;4978272;29;20448;-59
2023/01/28 10:44:18;;;;;;;1.77;1.20;;;3.80;99.90;;;;;;4978083;29;20498;-55
2023/01/28 10:46:48;;;;;;;2.90;1.40;;;3.80;99.90;;;;;;4978849;29;20483;-59
2023/01/28 10:49:18;;;;;;;3.17;1.10;;;3.80;99.90;;;;;;4978171;29;20455;-56
2023/01/28 10:51:46;;;;;;;1.53;1.00;;;3.90;99.90;;;;;;4979001;29;20428;-58
2023/01/28 10:54:22;;;;;;;5.37;1.83;;;3.90;99.90;;;;;;4978368;29;20531;-56
2023/01/28 10:56:53;;;;;;;3.47;1.53;;;3.90;99.90;;;;;;4977954;29;20440;-59
2023/01/28 10:59:22;;;;;;;5.37;1.03;;;3.90;99.90;;;;;;4977804;29;20486;-57
2023/01/28 11:01:52;;;;;;;2.57;1.80;;;3.90;99.90;;;;;;4978030;29;20472;-60
2023/01/28 11:04:24;;;;;;;1.20;0.87;;;3.90;99.90;;;;;;4978114;29;20479;-58
2023/01/28 11:07:00;;;;;;;1.57;1.00;;;3.90;99.90;;;;;;4978324;29;20468;-59
2023/01/28 11:09:30;;;;;;;1.30;0.90;;;3.90;99.90;;;;;;4977728;29;20471;-57
2023/01/28 11:11:57;;;;;;;1.37;1.00;;;3.80;99.90;;;;;;4978476;29;20436;-56
2023/01/28 11:14:26;;;;;;;1.30;1.00;;;3.90;99.90;;;;;;4978566;29;20479;-56
2023/01/28 11:16:57;;;;;;;5.57;1.00;;;3.80;99.90;;;;;;4978844;29;20531;-58
2023/01/28 11:19:32;;;;;;;2.07;0.83;;;3.80;99.90;;;;;;4978297;29;20544;-57
2023/01/28 11:22:00;;;;;;;2.80;0.90;;;3.80;99.90;;;;;;4977861;29;20459;-58
2023/01/28 11:24:32;;;;;;;1.93;0.93;;;3.80;99.90;;;;;;4977668;29;20491;-58
2023/01/28 11:27:08;;;;;;;2.07;1.07;;;3.80;99.90;;;;;;4978051;29;20468;-58
2023/01/28 11:29:40;;;;;;;3.40;1.60;;;3.80;99.90;;;;;;4977855;29;20471;-57
2023/01/28 11:32:18;;;;;;;3.03;1.10;;;3.80;99.90;;;;;;4978138;29;20459;-57
2023/01/28 11:34:50;;;;;;;1.00;0.80;;;3.80;99.90;;;;;;4977660;29;20487;-57
2023/01/28 11:37:21;;;;;;;1.60;1.17;;;3.90;99.90;;;;;;4978069;29;20425;-56
2023/01/28 11:39:49;;;;;;;3.60;1.03;;;3.90;99.90;;;;;;4978131;28;20515;-55
2023/01/28 11:42:19;;;;;;;1.77;0.80;;;3.80;99.90;;;;;;4982003;29;20446;-58
2023/01/28 11:44:46;;;;;;;1.20;0.80;;;3.80;99.90;;;;;;4981732;29;20468;-58
2023/01/28 11:47:49;;;;;;;2.83;1.40;;;3.80;99.90;;;;;;4981617;29;20479;-59
2023/01/28 11:50:25;;;;;;;2.53;1.13;;;3.80;99.90;;;;;;4923168;29;20478;-58
2023/01/28 11:53:10;;;;;;;2.00;1.00;;;3.80;99.90;;;;;;4973884;29;20442;-59
2023/01/28 11:55:52;;;;;;;1.50;1.10;;;3.90;99.90;;;;;;4981415;29;20476;-59
2023/01/28 11:58:23;;;;;;;1.00;0.80;;;3.90;99.90;;;;;;4981377;29;20432;-57
2023/01/28 12:01:02;;;;;;;2.60;1.43;;;3.90;99.90;;;;;;4981270;29;20456;-60
2023/01/28 12:03:44;;;;;;;1.87;0.93;;;3.90;99.90;;;;;;4981339;29;20431;-56
2023/01/28 12:06:31;;;;;;;1.60;1.03;;;3.90;99.90;;;;;;4981028;29;20482;-58
2023/01/28 12:09:11;;;;;;;1.17;0.90;;;3.90;99.90;;;;;;4981209;29;20435;-59
2023/01/28 12:14:57;;;;;;;1.47;0.80;;;3.80;99.90;;;;;;4981809;29;20472;-58
2023/01/28 12:17:35;;;;;;;1.97;1.17;;;3.70;99.90;;;;;;4982055;29;20423;-56
2023/01/28 12:20:12;;;;;;;5.83;0.90;;;3.80;99.90;;;;;;4981320;29;20475;-59
2023/01/28 12:23:15;;;;;;;2.17;0.93;;;3.80;99.90;;;;;;4981360;29;20443;-59
2023/01/28 12:25:53;;;;;;;1.40;0.80;;;3.80;99.90;;;;;;4981135;29;20474;-56
2023/01/28 12:28:33;;;;;;;2.37;0.83;;;3.80;99.90;;;;;;4981804;29;20439;-55
2023/01/28 12:31:24;;;;;;;2.33;1.47;;;3.80;99.90;;;;;;4981653;29;20436;-52
2023/01/28 12:34:17;;;;;;;1.10;0.80;;;3.80;99.90;;;;;;4981342;29;20455;-60
2023/01/28 12:36:55;;;;;;;9.70;1.07;;;3.70;99.90;;;;;;4981615;29;20435;-57
2023/01/28 12:39:33;;;;;;;1.90;0.90;;;3.80;99.90;;;;;;4981658;29;20463;-57
2023/01/28 12:42:08;;;;;;;2.37;1.10;;;3.80;99.90;;;;;;4981543;29;20466;-57
2023/01/28 12:44:41;;;;;;;4.53;1.03;;;3.90;99.90;;;;;;4981288;29;20502;-57
2023/01/28 12:47:10;;;;;;;1.97;0.97;;;3.80;99.90;;;;;;4981173;29;20479;-55
2023/01/28 12:49:42;;;;;;;2.57;1.40;;;3.80;99.90;;;;;;4980968;29;20486;-57
2023/01/28 12:52:15;;;;;;;1.23;1.10;;;3.80;99.90;;;;;;4980467;28;20439;-57
2023/01/28 12:54:48;;;;;;;3.50;1.80;;;3.70;99.90;;;;;;4981131;29;20452;-57
2023/01/28 12:57:25;;;;;;;2.63;1.00;;;3.70;99.90;;;;;;4980459;29;20447;-58
2023/01/28 12:59:59;;;;;;;2.20;1.27;;;3.80;99.90;;;;;;4980621;29;20551;-56
2023/01/28 13:02:31;;;;;;;5.43;1.37;;;3.80;99.90;;;;;;4981044;29;20447;-58
2023/01/28 13:05:09;;;;;;;1.10;0.80;;;3.80;99.90;;;;;;4980814;29;20468;-58
2023/01/28 13:07:41;;;;;;;2.53;1.10;;;3.70;99.90;;;;;;4980013;29;20467;-55
2023/01/28 13:10:17;;;;;;;5.70;1.17;;;3.60;99.90;;;;;;4980547;29;20496;-55
2023/01/28 13:12:46;;;;;;;1.10;1.00;;;3.50;99.90;;;;;;4980793;28;20433;-57
2023/01/28 13:15:19;;;;;;;2.33;1.10;;;3.50;99.90;;;;;;4980840;29;20460;-54
2023/01/28 13:18:04;;;;;;;1.87;1.10;;;3.50;99.90;;;;;;4980704;29;20463;-58
2023/01/28 13:20:37;;;;;;;1.27;0.97;;;3.50;99.90;;;;;;4980621;29;20468;-51
2023/01/28 13:23:21;;;;;;;1.70;1.20;;;3.50;99.90;;;;;;4980250;29;20444;-58
2023/01/28 13:25:50;;;;;;;1.73;1.00;;;3.60;99.90;;;;;;4980303;29;20467;-56
2023/01/28 13:28:30;;;;;;;1.43;0.80;;;3.50;99.90;;;;;;4980580;29;20444;-57
2023/01/28 13:31:03;;;;;;;1.83;0.77;;;3.40;99.90;;;;;;4980277;29;20463;-56
2023/01/28 13:33:32;;;;;;;3.73;1.00;;;3.50;99.90;;;;;;4980693;29;20443;-59
2023/01/28 13:36:10;;;;;;;1.20;0.80;;;3.50;99.90;;;;;;4979972;29;20482;-57
2023/01/28 13:38:45;;;;;;;1.00;0.90;;;3.50;99.90;;;;;;4980207;29;20471;-56
2023/01/28 13:41:12;;;;;;;1.53;1.10;;;3.60;99.90;;;;;;4980093;29;20604;-57
2023/01/28 13:43:42;;;;;;;2.70;1.83;;;3.70;99.90;;;;;;4979873;29;20448;-55
2023/01/28 13:46:12;;;;;;;1.20;0.80;;;3.70;99.90;;;;;;4980051;29;20491;-56
2023/01/28 13:48:50;;;;;;;2.13;1.00;;;3.80;99.90;;;;;;4979990;29;20451;-58
2023/01/28 13:51:22;;;;;;;2.97;1.73;;;3.80;99.90;;;;;;4980120;29;20452;-55
2023/01/28 13:53:58;;;;;;;7.87;1.57;;;3.90;99.90;;;;;;4979813;29;20469;-57